createdAt,value
2023-01-25T00:03:44.528Z,4.69
2023-01-25T00:08:52.718Z,4.64
2023-01-25T00:13:55.264Z,4.63
2023-01-25T00:18:57.121Z,4.65
2023-01-25T00:23:59.055Z,4.63
2023-01-25T00:29:01.464Z,4.60
2023-01-25T00:34:31.060Z,4.55
2023-01-25T00:39:33.711Z,4.53
2023-01-25T00:44:35.733Z,4.55
2023-01-25T00:49:39.338Z,4.56
2023-01-25T00:54:41.292Z,4.54
2023-01-25T00:59:44.794Z,4.49
2023-01-25T01:04:49.123Z,4.45
2023-01-25T01:09:50.997Z,4.41
2023-01-25T01:14:52.865Z,4.42
2023-01-25T01:19:54.704Z,4.40
2023-01-25T01:24:56.548Z,4.42
2023-01-25T01:29:58.409Z,4.40
2023-01-25T01:35:00.296Z,4.43
2023-01-25T01:40:02.288Z,4.50
2023-01-25T01:45:42.502Z,4.47
2023-01-25T01:50:47.645Z,4.52
2023-01-25T01:55:49.679Z,4.54
2023-01-25T02:00:51.705Z,4.63
2023-01-25T02:05:56.957Z,4.62
2023-01-25T02:11:00.442Z,4.65
2023-01-25T02:16:02.652Z,4.65
2023-01-25T02:21:04.759Z,4.67
2023-01-25T02:26:07.888Z,4.70
2023-01-25T02:31:10.220Z,4.64
2023-01-25T02:36:12.071Z,4.59
2023-01-25T02:41:33.028Z,4.60
2023-01-25T02:46:37.672Z,4.57
2023-01-25T02:51:43.028Z,4.61
2023-01-25T02:56:45.360Z,4.57
2023-01-25T03:01:48.041Z,4.53
2023-01-25T03:06:51.979Z,4.55
2023-01-25T03:11:54.557Z,4.57
2023-01-25T03:16:58.187Z,4.54
2023-01-25T03:22:00.976Z,4.47
2023-01-25T03:27:13.476Z,4.39
2023-01-25T03:32:22.078Z,4.30
2023-01-25T03:37:27.437Z,4.34
2023-01-25T03:42:29.522Z,4.44
2023-01-25T03:47:33.412Z,4.52
2023-01-25T03:52:38.842Z,4.61
2023-01-25T03:57:41.873Z,4.61
2023-01-25T04:02:44.866Z,4.58
2023-01-25T04:07:51.151Z,4.45
2023-01-25T04:13:00.363Z,4.37
2023-01-25T04:18:02.509Z,4.35
2023-01-25T04:23:04.601Z,4.32
2023-01-25T04:28:11.396Z,4.35
2023-01-25T04:33:14.189Z,4.39
2023-01-25T04:38:17.684Z,4.29
2023-01-25T04:43:21.735Z,4.31
2023-01-25T04:48:32.805Z,4.41
2023-01-25T04:53:38.810Z,4.30
2023-01-25T04:58:42.141Z,4.31
2023-01-25T05:03:44.445Z,4.31
2023-01-25T05:09:10.041Z,4.28
2023-01-25T05:14:12.287Z,4.40
2023-01-25T05:19:14.525Z,4.30
2023-01-25T05:24:33.062Z,4.41
2023-01-25T05:29:41.112Z,4.32
2023-01-25T05:34:44.298Z,4.40
2023-01-25T05:39:46.898Z,4.40
2023-01-25T05:44:48.808Z,4.39
2023-01-25T05:49:51.797Z,4.28
2023-01-25T05:55:02.254Z,4.28
2023-01-25T06:00:06.300Z,4.20
2023-01-25T06:05:15.063Z,4.22
2023-01-25T06:10:17.565Z,4.27
2023-01-25T06:15:22.042Z,4.26
2023-01-25T06:20:24.271Z,4.27
2023-01-25T06:25:40.169Z,4.27
2023-01-25T06:30:42.130Z,4.31
2023-01-25T06:35:44.707Z,4.35
2023-01-25T06:40:46.553Z,4.45
2023-01-25T06:45:48.347Z,4.48
2023-01-25T06:50:55.802Z,4.47
2023-01-25T06:56:06.334Z,4.49
2023-01-25T07:01:22.713Z,4.54
2023-01-25T07:06:26.234Z,4.48
2023-01-25T07:11:28.127Z,4.31
2023-01-25T07:16:36.564Z,4.18
2023-01-25T07:21:38.520Z,3.99
2023-01-25T07:26:40.406Z,3.82
2023-01-25T07:31:42.730Z,3.57
2023-01-25T07:36:47.099Z,3.46
2023-01-25T07:41:48.966Z,3.60
2023-01-25T07:46:54.494Z,3.71
2023-01-25T07:51:56.368Z,3.88
2023-01-25T07:56:58.352Z,3.95
2023-01-25T08:02:00.500Z,3.90
2023-01-25T08:07:02.347Z,3.97
2023-01-25T08:12:05.397Z,4.04
2023-01-25T08:17:08.728Z,4.04
2023-01-25T08:22:10.583Z,4.09
2023-01-25T08:27:12.474Z,4.00
2023-01-25T08:32:14.312Z,4.00
2023-01-25T08:37:16.207Z,4.05
2023-01-25T08:42:18.097Z,3.94
2023-01-25T08:47:19.914Z,3.99
2023-01-25T08:52:22.902Z,3.89
2023-01-25T08:57:24.817Z,3.79
2023-01-25T09:02:26.658Z,3.85
2023-01-25T09:07:28.518Z,3.74
2023-01-25T09:12:31.708Z,3.76
2023-01-25T09:17:33.655Z,3.78
2023-01-25T09:22:35.812Z,3.88
2023-01-25T09:27:38.378Z,3.82
2023-01-25T09:32:40.461Z,3.83
2023-01-25T09:37:42.440Z,3.92
2023-01-25T09:43:09.747Z,4.02
2023-01-25T09:48:37.888Z,4.16
2023-01-25T09:53:47.765Z,4.24
2023-01-25T09:58:54.030Z,4.21
2023-01-25T10:04:04.476Z,3.99
2023-01-25T10:09:13.871Z,3.90
2023-01-25T10:14:18.580Z,4.05
2023-01-25T10:19:44.792Z,4.12
2023-01-25T10:25:15.980Z,4.05
2023-01-25T10:30:29.318Z,3.97
2023-01-25T10:35:39.225Z,4.18
2023-01-25T10:40:58.866Z,4.25
2023-01-25T10:46:02.054Z,4.39
2023-01-25T10:51:04.046Z,4.52
2023-01-25T10:56:17.207Z,4.59
2023-01-25T11:01:34.036Z,4.70
2023-01-25T11:06:38.645Z,4.73
2023-01-25T11:11:41.471Z,4.65
2023-01-25T11:16:48.411Z,4.35
2023-01-25T11:21:55.415Z,4.15
2023-01-25T11:27:26.314Z,3.89
2023-01-25T11:32:28.186Z,3.82
2023-01-25T11:38:11.284Z,3.61
2023-01-25T11:43:49.327Z,3.78
2023-01-25T11:48:51.129Z,4.02
2023-01-25T11:54:29.973Z,4.16
2023-01-25T11:59:31.761Z,4.26
2023-01-25T12:05:12.639Z,4.38
2023-01-25T12:10:21.308Z,4.47
2023-01-25T12:15:42.438Z,4.46
2023-01-25T12:21:10.405Z,4.49
2023-01-25T12:26:34.656Z,4.54
2023-01-25T12:31:54.830Z,4.59
2023-01-25T12:36:58.033Z,4.50
2023-01-25T12:42:42.793Z,4.51
2023-01-25T12:48:03.325Z,4.52
2023-01-25T12:53:33.609Z,4.58
2023-01-25T12:58:55.375Z,4.65
2023-01-25T13:04:38.960Z,4.79
2023-01-25T13:10:03.975Z,4.82
2023-01-25T13:15:34.744Z,4.82
2023-01-25T13:20:39.288Z,4.82
2023-01-25T13:25:41.128Z,4.79
2023-01-25T13:30:53.197Z,4.77
2023-01-25T13:35:55.133Z,4.70
2023-01-25T13:41:12.220Z,4.67
2023-01-25T13:46:17.659Z,4.62
2023-01-25T13:51:20.172Z,4.67
2023-01-25T13:56:34.707Z,4.66
2023-01-25T14:01:37.241Z,4.64
2023-01-25T14:06:41.235Z,4.63
2023-01-25T14:11:53.105Z,4.64
2023-01-25T14:17:18.101Z,4.68
2023-01-25T14:22:25.814Z,4.73
2023-01-25T14:27:27.744Z,4.76
2023-01-25T14:32:29.784Z,4.72
2023-01-25T14:37:31.599Z,4.75
2023-01-25T14:42:33.511Z,4.70
2023-01-25T14:47:35.939Z,4.65
2023-01-25T14:52:40.815Z,4.68
2023-01-25T14:57:43.158Z,4.68
2023-01-25T15:02:48.812Z,4.67
2023-01-25T15:07:56.000Z,4.64
2023-01-25T15:13:13.582Z,4.73
2023-01-25T15:18:57.575Z,4.83
2023-01-25T15:24:06.947Z,4.97
2023-01-25T15:29:20.203Z,5.10
2023-01-25T15:34:35.328Z,5.10
2023-01-25T15:39:37.197Z,5.12
2023-01-25T15:44:39.033Z,5.01
2023-01-25T15:49:40.868Z,4.96
2023-01-25T15:54:51.769Z,5.07
2023-01-25T15:59:56.195Z,4.91
2023-01-25T16:05:00.931Z,4.88
2023-01-25T16:10:02.800Z,4.80
2023-01-25T16:15:05.729Z,4.83
2023-01-25T16:20:15.770Z,4.82
2023-01-25T16:25:17.657Z,4.80
2023-01-25T16:30:24.006Z,4.91
2023-01-25T16:35:26.027Z,5.00
2023-01-25T16:40:36.832Z,5.02
2023-01-25T16:45:39.876Z,4.93
2023-01-25T16:50:41.922Z,4.92
2023-01-25T16:55:43.920Z,4.93
2023-01-25T17:00:46.367Z,4.83
2023-01-25T17:05:48.197Z,4.77
2023-01-25T17:10:50.697Z,4.63
2023-01-25T17:15:56.261Z,4.69
2023-01-25T17:21:05.913Z,4.71
2023-01-25T17:26:11.729Z,4.69
2023-01-25T17:31:19.268Z,4.68
2023-01-25T17:36:21.810Z,4.65
2023-01-25T17:41:23.637Z,4.60
2023-01-25T17:46:32.855Z,4.63
2023-01-25T17:51:36.355Z,4.63
2023-01-25T17:56:39.630Z,4.77
2023-01-25T18:01:43.152Z,4.80
2023-01-25T18:06:45.280Z,4.79
2023-01-25T18:11:48.037Z,4.85
2023-01-25T18:16:50.588Z,4.93
2023-01-25T18:21:52.433Z,4.96
2023-01-25T18:27:00.725Z,4.67
2023-01-25T18:32:02.708Z,4.28
2023-01-25T18:37:18.836Z,4.25
2023-01-25T18:42:22.166Z,4.43
2023-01-25T18:47:24.175Z,4.59
2023-01-25T18:52:26.424Z,4.72
2023-01-25T18:57:28.749Z,4.80
2023-01-25T19:02:31.188Z,4.80
2023-01-25T19:07:33.800Z,4.81
2023-01-25T19:12:36.420Z,4.85
2023-01-25T19:17:38.739Z,4.89
2023-01-25T19:22:41.172Z,4.90
2023-01-25T19:27:43.887Z,4.92
2023-01-25T19:32:45.831Z,4.85
2023-01-25T19:37:47.724Z,4.88
2023-01-25T19:42:49.721Z,4.87
2023-01-25T19:47:52.077Z,4.87
2023-01-25T19:52:56.152Z,4.82
2023-01-25T19:57:58.016Z,4.83
2023-01-25T20:03:14.823Z,4.89
2023-01-25T20:08:18.356Z,4.89
2023-01-25T20:13:20.388Z,4.82
2023-01-25T20:18:23.597Z,4.73
2023-01-25T20:23:26.020Z,4.77
2023-01-25T20:28:28.649Z,4.77
2023-01-25T20:33:32.390Z,4.77
2023-01-25T20:38:36.780Z,4.70
2023-01-25T20:43:38.816Z,4.65
2023-01-25T20:48:40.679Z,4.58
2023-01-25T20:53:44.360Z,4.50
2023-01-25T20:58:50.715Z,4.48
2023-01-25T21:03:56.986Z,4.41
2023-01-25T21:08:59.418Z,4.34
2023-01-25T21:14:01.330Z,4.30
2023-01-25T21:19:06.051Z,4.40
2023-01-25T21:24:09.206Z,4.49
2023-01-25T21:29:11.083Z,4.56
2023-01-25T21:34:12.906Z,4.64
2023-01-25T21:39:15.460Z,4.70
2023-01-25T21:44:35.855Z,4.74
2023-01-25T21:49:56.286Z,4.81
2023-01-25T21:54:58.103Z,4.82
2023-01-25T21:59:59.899Z,4.80
2023-01-25T22:05:01.731Z,4.90
2023-01-25T22:10:04.191Z,4.83
2023-01-25T22:15:07.203Z,4.76
2023-01-25T22:20:10.134Z,4.79
2023-01-25T22:25:12.156Z,4.82
2023-01-25T22:30:14.207Z,4.80
2023-01-25T22:35:16.170Z,4.76
2023-01-25T22:40:18.208Z,4.78
2023-01-25T22:45:20.204Z,4.74
2023-01-25T22:50:22.090Z,4.64
2023-01-25T22:55:23.972Z,4.68
2023-01-25T23:00:25.802Z,4.64
2023-01-25T23:05:27.905Z,4.66
2023-01-25T23:10:29.853Z,4.61
2023-01-25T23:15:31.783Z,4.61
2023-01-25T23:20:34.672Z,4.70
2023-01-25T23:25:38.986Z,4.72
2023-01-25T23:30:40.839Z,4.72
2023-01-25T23:35:42.668Z,4.70
2023-01-25T23:40:44.490Z,4.66
2023-01-25T23:45:46.315Z,4.63
2023-01-25T23:50:48.157Z,4.46
2023-01-25T23:55:59.315Z,4.47
